Terminal Aerodrome Forecast
Issued by NWS

Current Version | Previous Version | Graphics & Text | Print | Product List | Glossary On
Versions: 1 2 3 4 5 6 7 8 9 10 11 12 13 14 15 16 17 18 19 20
000
FTUS41 KPBZ 290700 AAA
TAFMGW
TAF AMD
KMGW 290706Z 2907/3006 00000KT 3SM BR SCT025 BKN035
      TEMPO 2907/2911 2SM BR BKN025
     FM291500 36005KT P6SM BKN150=

USA.gov is the U.S. government's official web portal to all federal, state and local government web resources and services.